sensor_id;sensor_type;location;lat;lon;timestamp;pressure;altitude;pressure_sealevel;temperature;humidity
35758;BME280;21879;50.110;18.900;2022-12-24T00:01:35;97605.51;;;6.95;72.29
35758;BME280;21879;50.110;18.900;2022-12-24T00:12:03;97583.52;;;6.84;71.95
35758;BME280;21879;50.110;18.900;2022-12-24T00:22:31;97555.84;;;6.74;71.95
35758;BME280;21879;50.110;18.900;2022-12-24T00:32:59;97545.50;;;6.72;71.90
35758;BME280;21879;50.110;18.900;2022-12-24T00:43:27;97534.88;;;6.65;71.79
35758;BME280;21879;50.110;18.900;2022-12-24T00:53:55;97531.58;;;6.52;71.86
35758;BME280;21879;50.110;18.900;2022-12-24T01:04:23;97525.63;;;6.44;71.50
35758;BME280;21879;50.110;18.900;2022-12-24T01:15:11;97549.85;;;6.40;71.49
35758;BME280;21879;50.110;18.900;2022-12-24T01:25:39;97548.70;;;6.34;71.99
35758;BME280;21879;50.110;18.900;2022-12-24T01:36:08;97547.87;;;6.47;71.81
35758;BME280;21879;50.110;18.900;2022-12-24T01:46:36;97539.95;;;6.45;72.00
35758;BME280;21879;50.110;18.900;2022-12-24T01:57:06;97521.52;;;6.56;72.20
35758;BME280;21879;50.110;18.900;2022-12-24T02:07:35;97516.41;;;6.49;72.27
35758;BME280;21879;50.110;18.900;2022-12-24T02:18:03;97523.45;;;6.39;71.75
35758;BME280;21879;50.110;18.900;2022-12-24T02:28:51;97528.46;;;6.39;71.97
35758;BME280;21879;50.110;18.900;2022-12-24T02:39:29;97517.66;;;6.46;72.30
35758;BME280;21879;50.110;18.900;2022-12-24T02:50:01;97529.04;;;6.62;72.04
35758;BME280;21879;50.110;18.900;2022-12-24T03:00:37;97524.15;;;6.52;72.19
35758;BME280;21879;50.110;18.900;2022-12-24T03:11:10;97549.79;;;6.13;73.34
35758;BME280;21879;50.110;18.900;2022-12-24T03:21:40;97567.39;;;5.95;75.05
35758;BME280;21879;50.110;18.900;2022-12-24T03:32:09;97573.67;;;5.83;76.13
35758;BME280;21879;50.110;18.900;2022-12-24T03:42:38;97581.33;;;5.78;76.95
35758;BME280;21879;50.110;18.900;2022-12-24T03:53:05;97589.94;;;5.78;77.61
35758;BME280;21879;50.110;18.900;2022-12-24T04:03:33;97595.09;;;5.82;77.69
35758;BME280;21879;50.110;18.900;2022-12-24T04:14:01;97595.72;;;5.89;77.84
35758;BME280;21879;50.110;18.900;2022-12-24T04:24:28;97601.21;;;5.96;78.06
35758;BME280;21879;50.110;18.900;2022-12-24T04:34:56;97602.77;;;5.97;78.26
35758;BME280;21879;50.110;18.900;2022-12-24T04:45:24;97601.02;;;5.97;78.28
35758;BME280;21879;50.110;18.900;2022-12-24T04:55:52;97598.66;;;5.88;78.57
35758;BME280;21879;50.110;18.900;2022-12-24T05:06:22;97613.20;;;5.81;79.07
35758;BME280;21879;50.110;18.900;2022-12-24T05:16:51;97616.64;;;5.83;79.44
35758;BME280;21879;50.110;18.900;2022-12-24T05:27:19;97621.63;;;5.83;79.37
35758;BME280;21879;50.110;18.900;2022-12-24T05:37:47;97627.20;;;5.77;79.57
35758;BME280;21879;50.110;18.900;2022-12-24T05:48:14;97620.42;;;5.84;79.67
35758;BME280;21879;50.110;18.900;2022-12-24T05:58:42;97627.09;;;5.97;79.52
35758;BME280;21879;50.110;18.900;2022-12-24T06:09:10;97644.79;;;6.05;79.75
35758;BME280;21879;50.110;18.900;2022-12-24T06:19:38;97653.76;;;6.25;79.67
35758;BME280;21879;50.110;18.900;2022-12-24T06:30:07;97666.45;;;6.36;79.51
35758;BME280;21879;50.110;18.900;2022-12-24T06:40:36;97681.38;;;6.43;79.42
35758;BME280;21879;50.110;18.900;2022-12-24T06:51:04;97691.77;;;6.42;79.32
35758;BME280;21879;50.110;18.900;2022-12-24T07:01:32;97707.80;;;6.44;79.29
35758;BME280;21879;50.110;18.900;2022-12-24T07:11:59;97718.11;;;6.49;79.47
35758;BME280;21879;50.110;18.900;2022-12-24T07:22:27;97729.91;;;6.62;79.30
35758;BME280;21879;50.110;18.900;2022-12-24T07:32:55;97733.89;;;6.62;79.16
35758;BME280;21879;50.110;18.900;2022-12-24T07:43:23;97743.02;;;6.64;79.33
35758;BME280;21879;50.110;18.900;2022-12-24T07:53:51;97752.48;;;6.67;79.17
35758;BME280;21879;50.110;18.900;2022-12-24T08:04:18;97766.09;;;6.72;79.29
35758;BME280;21879;50.110;18.900;2022-12-24T08:14:46;97771.98;;;6.90;79.36
35758;BME280;21879;50.110;18.900;2022-12-24T08:25:14;97775.36;;;6.96;79.05
35758;BME280;21879;50.110;18.900;2022-12-24T08:35:48;97800.61;;;6.95;79.17
35758;BME280;21879;50.110;18.900;2022-12-24T08:46:15;97819.79;;;6.96;78.97
35758;BME280;21879;50.110;18.900;2022-12-24T08:56:43;97827.54;;;6.98;79.06
35758;BME280;21879;50.110;18.900;2022-12-24T09:07:11;97838.55;;;7.04;78.94
35758;BME280;21879;50.110;18.900;2022-12-24T09:17:39;97856.17;;;7.04;78.97
35758;BME280;21879;50.110;18.900;2022-12-24T09:28:06;97865.48;;;7.08;78.94
35758;BME280;21879;50.110;18.900;2022-12-24T09:38:34;97867.67;;;7.13;78.75
35758;BME280;21879;50.110;18.900;2022-12-24T09:49:07;97879.70;;;7.21;78.85
35758;BME280;21879;50.110;18.900;2022-12-24T09:59:42;97875.67;;;7.27;78.88
35758;BME280;21879;50.110;18.900;2022-12-24T10:10:18;97883.70;;;7.39;79.25
35758;BME280;21879;50.110;18.900;2022-12-24T10:20:55;97907.95;;;7.50;79.27
35758;BME280;21879;50.110;18.900;2022-12-24T10:31:27;97927.48;;;7.54;79.18
35758;BME280;21879;50.110;18.900;2022-12-24T10:41:58;97936.36;;;7.46;79.01
35758;BME280;21879;50.110;18.900;2022-12-24T10:52:31;97955.73;;;7.46;79.37
35758;BME280;21879;50.110;18.900;2022-12-24T11:03:22;97972.00;;;7.47;79.45
35758;BME280;21879;50.110;18.900;2022-12-24T11:13:55;97987.91;;;7.45;79.44
35758;BME280;21879;50.110;18.900;2022-12-24T11:24:26;97984.10;;;7.47;79.48
35758;BME280;21879;50.110;18.900;2022-12-24T11:34:55;98002.37;;;7.55;79.61
35758;BME280;21879;50.110;18.900;2022-12-24T11:45:27;98007.49;;;7.61;79.48
35758;BME280;21879;50.110;18.900;2022-12-24T11:55:58;98034.07;;;7.71;79.50
35758;BME280;21879;50.110;18.900;2022-12-24T12:06:30;98055.31;;;7.93;79.68
35758;BME280;21879;50.110;18.900;2022-12-24T12:17:06;98063.83;;;8.09;79.04
35758;BME280;21879;50.110;18.900;2022-12-24T12:27:43;98085.91;;;8.17;78.71
35758;BME280;21879;50.110;18.900;2022-12-24T12:38:17;98096.59;;;8.23;78.29
35758;BME280;21879;50.110;18.900;2022-12-24T12:48:55;98111.49;;;8.22;77.93
35758;BME280;21879;50.110;18.900;2022-12-24T12:59:32;98133.30;;;8.24;77.71
35758;BME280;21879;50.110;18.900;2022-12-24T13:10:28;98147.50;;;8.25;77.60
35758;BME280;21879;50.110;18.900;2022-12-24T13:20:59;98174.12;;;8.30;77.49
35758;BME280;21879;50.110;18.900;2022-12-24T13:31:28;98194.70;;;8.34;77.18
35758;BME280;21879;50.110;18.900;2022-12-24T13:41:56;98206.65;;;8.34;76.77
35758;BME280;21879;50.110;18.900;2022-12-24T13:52:29;98221.53;;;8.35;76.74
35758;BME280;21879;50.110;18.900;2022-12-24T14:03:01;98238.86;;;8.37;76.19
35758;BME280;21879;50.110;18.900;2022-12-24T14:14:00;98251.85;;;8.35;76.14
35758;BME280;21879;50.110;18.900;2022-12-24T14:24:40;98273.36;;;8.33;75.73
35758;BME280;21879;50.110;18.900;2022-12-24T14:35:15;98292.39;;;8.35;75.54
35758;BME280;21879;50.110;18.900;2022-12-24T14:45:47;98309.36;;;8.34;75.32
35758;BME280;21879;50.110;18.900;2022-12-24T14:56:19;98335.01;;;8.35;75.09
35758;BME280;21879;50.110;18.900;2022-12-24T15:06:50;98349.39;;;8.34;74.88
35758;BME280;21879;50.110;18.900;2022-12-24T15:17:19;98363.60;;;8.38;74.77
35758;BME280;21879;50.110;18.900;2022-12-24T15:27:46;98377.63;;;8.38;74.59
35758;BME280;21879;50.110;18.900;2022-12-24T15:38:24;98392.84;;;8.44;74.48
35758;BME280;21879;50.110;18.900;2022-12-24T15:48:54;98402.30;;;8.57;74.52
35758;BME280;21879;50.110;18.900;2022-12-24T15:59:29;98417.02;;;8.59;74.09
35758;BME280;21879;50.110;18.900;2022-12-24T16:09:57;98424.42;;;8.65;73.74
35758;BME280;21879;50.110;18.900;2022-12-24T16:20:43;98426.11;;;8.74;73.85
35758;BME280;21879;50.110;18.900;2022-12-24T16:31:17;98439.35;;;8.89;73.54
35758;BME280;21879;50.110;18.900;2022-12-24T16:41:45;98462.59;;;8.88;72.93
35758;BME280;21879;50.110;18.900;2022-12-24T16:52:31;98472.48;;;8.87;72.89
35758;BME280;21879;50.110;18.900;2022-12-24T17:02:59;98504.73;;;8.87;72.46
35758;BME280;21879;50.110;18.900;2022-12-24T17:13:27;98505.34;;;9.00;72.69
35758;BME280;21879;50.110;18.900;2022-12-24T17:23:55;98506.95;;;9.19;72.25
35758;BME280;21879;50.110;18.900;2022-12-24T17:34:22;98513.73;;;8.90;71.05
35758;BME280;21879;50.110;18.900;2022-12-24T17:44:50;98529.16;;;8.49;70.98
35758;BME280;21879;50.110;18.900;2022-12-24T17:55:18;98533.02;;;8.29;71.31
35758;BME280;21879;50.110;18.900;2022-12-24T18:05:47;98536.49;;;8.25;71.48
35758;BME280;21879;50.110;18.900;2022-12-24T18:16:18;98557.36;;;7.92;71.71
35758;BME280;21879;50.110;18.900;2022-12-24T18:26:46;98568.27;;;7.74;71.98
35758;BME280;21879;50.110;18.900;2022-12-24T18:37:14;98581.92;;;7.54;72.34
35758;BME280;21879;50.110;18.900;2022-12-24T18:47:43;98596.97;;;7.40;72.71
35758;BME280;21879;50.110;18.900;2022-12-24T18:58:11;98609.19;;;7.16;73.25
35758;BME280;21879;50.110;18.900;2022-12-24T19:08:39;98620.38;;;6.99;73.50
35758;BME280;21879;50.110;18.900;2022-12-24T19:19:27;98627.46;;;6.96;73.67
35758;BME280;21879;50.110;18.900;2022-12-24T19:29:54;98628.67;;;6.93;73.60
35758;BME280;21879;50.110;18.900;2022-12-24T19:40:22;98645.60;;;6.94;73.58
35758;BME280;21879;50.110;18.900;2022-12-24T19:50:50;98654.02;;;7.32;74.09
35758;BME280;21879;50.110;18.900;2022-12-24T20:01:19;98654.25;;;7.55;73.40
35758;BME280;21879;50.110;18.900;2022-12-24T20:11:49;98661.49;;;7.40;72.57
35758;BME280;21879;50.110;18.900;2022-12-24T20:22:17;98666.10;;;7.20;72.44
35758;BME280;21879;50.110;18.900;2022-12-24T20:32:45;98677.17;;;6.81;72.34
35758;BME280;21879;50.110;18.900;2022-12-24T20:43:13;98688.85;;;6.99;73.31
35758;BME280;21879;50.110;18.900;2022-12-24T20:53:47;98702.64;;;7.31;72.88
35758;BME280;21879;50.110;18.900;2022-12-24T21:04:15;98704.23;;;7.41;72.44
35758;BME280;21879;50.110;18.900;2022-12-24T21:14:42;98705.11;;;7.50;72.15
35758;BME280;21879;50.110;18.900;2022-12-24T21:25:11;98722.10;;;7.60;71.72
35758;BME280;21879;50.110;18.900;2022-12-24T21:35:39;98727.84;;;7.73;71.60
35758;BME280;21879;50.110;18.900;2022-12-24T21:46:08;98733.58;;;7.82;71.51
35758;BME280;21879;50.110;18.900;2022-12-24T21:56:36;98746.24;;;7.98;70.98
35758;BME280;21879;50.110;18.900;2022-12-24T22:07:21;98767.51;;;7.88;70.40
35758;BME280;21879;50.110;18.900;2022-12-24T22:18:07;98769.73;;;7.79;70.14
35758;BME280;21879;50.110;18.900;2022-12-24T22:28:34;98774.77;;;7.34;70.52
35758;BME280;21879;50.110;18.900;2022-12-24T22:39:02;98763.26;;;6.85;71.45
35758;BME280;21879;50.110;18.900;2022-12-24T22:49:30;98776.23;;;6.85;73.04
35758;BME280;21879;50.110;18.900;2022-12-24T22:59:57;98775.92;;;7.22;73.43
35758;BME280;21879;50.110;18.900;2022-12-24T23:10:25;98774.17;;;7.60;73.59
35758;BME280;21879;50.110;18.900;2022-12-24T23:20:52;98775.47;;;7.87;73.01
35758;BME280;21879;50.110;18.900;2022-12-24T23:31:20;98785.36;;;7.92;72.68
35758;BME280;21879;50.110;18.900;2022-12-24T23:41:48;98803.03;;;7.98;72.38
35758;BME280;21879;50.110;18.900;2022-12-24T23:52:16;98798.73;;;8.16;72.30
